Station Charts

 

Station Historical Data
Daily Summary for January 12, 2018 Units:  English    Metric   Both
Next Day »
Daily Weekly Monthly Yearly Custom
  High: Low: Average:
Temperature: 51.3 °F 45.3 °F 48.3 °F
Dew Point: 46.4 °F 43.4 °F 45.3 °F
Humidity: 93% 79% 90%
Wind Speed: 7.4mph 0.0mph 1mph
Wind Gust: 6.9mph - -
Wind- - SSW
Pressure: 30.38 in 30.03 in -
Precipitation: 0.07 in    
Historical Graphs
 
 
Tabular Data for January 12, 2018
Time Temperature Dew Point Pressure Wind Wind Speed Wind Gust Humidity Rainfall Rate (Hourly)
00:03 48.4 °F 46.4 °F 30.03 in Calm     93% 0.00 in
00:23 48.2 °F 46.3 °F 30.05 in Calm   1.4 mph 93% 0.01 in
00:29 48.2 °F 46.3 °F 30.05 in Calm     93% 0.01 in
00:39 48.2 °F 46.3 °F 30.05 in Calm     93% 0.01 in
00:44 48.2 °F 46.3 °F 30.05 in Calm     93% 0.01 in
00:49 48.2 °F 46.3 °F 30.06 in Calm     93% 0.01 in
00:54 48.2 °F 46.3 °F 30.06 in Calm     93% 0.01 in
01:02 48.0 °F 46.1 °F 30.07 in Calm     93% 0.01 in
01:10 48.0 °F 46.1 °F 30.07 in Calm     93% 0.01 in
01:20 48.2 °F 46.3 °F 30.08 in Calm     93% 0.00 in
01:31 48.2 °F 46.3 °F 30.08 in Calm     93% 0.00 in
01:49 48.2 °F 46.3 °F 30.09 in Calm     93% 0.02 in
01:54 48.2 °F 46.3 °F 30.09 in Calm     93% 0.02 in
02:04 48.2 °F 46.3 °F 30.10 in Calm     93% 0.02 in
02:09 48.0 °F 46.1 °F 30.10 in Calm     93% 0.02 in
02:14 48.0 °F 46.1 °F 30.10 in Calm     93% 0.02 in
02:20 48.2 °F 46.3 °F 30.11 in Calm     93% 0.02 in
02:27 48.2 °F 46.3 °F 30.11 in Calm     93% 0.02 in
02:45 48.4 °F 46.4 °F 30.11 in Calm     93% 0.00 in
02:50 48.2 °F 46.0 °F 30.11 in Calm     92% 0.00 in
02:55 48.2 °F 46.0 °F 30.11 in SE 3.1 mph   92% 0.00 in
03:02 48.0 °F 45.8 °F 30.12 in SE 2.4 mph   92% 0.00 in
03:10 48.2 °F 46.0 °F 30.12 in Calm     92% 0.00 in
03:20 48.0 °F 45.8 °F 30.12 in SE 1.4 mph   92% 0.00 in
03:30 48.0 °F 45.5 °F 30.12 in SE 2.3 mph   91% 0.00 in
03:35 48.0 °F 45.5 °F 30.12 in Calm     91% 0.00 in
03:45 48.2 °F 45.7 °F 30.12 in SE 3.1 mph   91% 0.00 in
03:56 48.4 °F 45.9 °F 30.13 in Calm     91% 0.00 in
04:01 48.6 °F 45.5 °F 30.13 in Calm     89% 0.00 in
04:06 48.6 °F 45.8 °F 30.14 in Calm     90% 0.00 in
04:14 48.7 °F 45.6 °F 30.14 in Calm     89% 0.00 in
04:21 48.7 °F 45.6 °F 30.16 in South 5.8 mph   89% 0.00 in
04:27 48.7 °F 45.6 °F 30.16 in West 2.9 mph   89% 0.00 in
04:41 48.9 °F 45.2 °F 30.16 in SW 5.8 mph   87% 0.00 in
04:51 48.9 °F 45.2 °F 30.17 in Calm   1.4 mph 87% 0.00 in
04:56 48.9 °F 45.2 °F 30.17 in WSW 1.2 mph   87% 0.00 in
05:05 48.7 °F 45.3 °F 30.17 in South 1.4 mph   88% 0.00 in
05:10 48.7 °F 45.3 °F 30.17 in Calm     88% 0.00 in
05:15 48.6 °F 45.2 °F 30.17 in Calm     88% 0.00 in
05:28 48.6 °F 45.2 °F 30.17 in South 3.5 mph   88% 0.00 in
05:35 48.6 °F 45.5 °F 30.17 in SSE 4.6 mph   89% 0.00 in
05:44 48.6 °F 45.5 °F 30.17 in Calm     89% 0.00 in
05:52 48.4 °F 45.3 °F 30.18 in SSE 3.5 mph   89% 0.00 in
06:00 48.6 °F 45.2 °F 30.18 in Calm     88% 0.00 in
06:09 48.6 °F 45.2 °F 30.19 in SW 5.8 mph   88% 0.00 in
06:17 48.6 °F 45.2 °F 30.19 in Calm     88% 0.00 in
06:32 48.6 °F 45.2 °F 30.20 in ESE 2.9 mph   88% 0.00 in
06:42 48.4 °F 45.3 °F 30.20 in Calm     89% 0.00 in
06:49 48.4 °F 45.3 °F 30.20 in West 4.3 mph   89% 0.00 in
06:54 48.4 °F 45.3 °F 30.20 in Calm     89% 0.00 in
07:04 48.4 °F 45.3 °F 30.21 in Calm     89% 0.00 in
07:22 48.4 °F 45.0 °F 30.20 in West 1.4 mph   88% 0.00 in
07:33 48.6 °F 44.9 °F 30.20 in SE 2.3 mph   87% 0.00 in
07:38 48.6 °F 44.6 °F 30.20 in Calm   1.4 mph 86% 0.00 in
07:43 48.6 °F 44.6 °F 30.20 in NNW 2.3 mph 2.3 mph 86% 0.00 in
07:50 48.6 °F 44.9 °F 30.21 in SW 2.3 mph   87% 0.00 in
08:01 48.4 °F 44.4 °F 30.21 in Calm     86% 0.00 in
08:10 48.6 °F 44.9 °F 30.21 in Calm     87% 0.00 in
08:22 48.4 °F 45.0 °F 30.22 in Calm     88% 0.00 in
08:27 48.6 °F 45.2 °F 30.22 in SSW 2.3 mph   88% 0.00 in
08:35 48.6 °F 45.2 °F 30.22 in Calm     88% 0.00 in
08:42 48.6 °F 44.9 °F 30.22 in SW 2.3 mph   87% 0.00 in
08:57 48.9 °F 45.2 °F 30.22 in Calm     87% 0.00 in
09:02 48.9 °F 44.9 °F 30.23 in Calm     86% 0.00 in
09:07 49.1 °F 44.8 °F 30.23 in Calm     85% 0.00 in
09:13 49.1 °F 45.1 °F 30.23 in Calm     86% 0.00 in
09:19 49.1 °F 44.5 °F 30.25 in Calm     84% 0.00 in
09:24 49.3 °F 44.6 °F 30.25 in NW 1.2 mph   84% 0.00 in
09:30 49.3 °F 45.3 °F 30.25 in Calm     86% 0.00 in
09:40 49.5 °F 44.8 °F 30.25 in SSE 4.6 mph   84% 0.00 in
09:46 49.6 °F 44.7 °F 30.25 in SSE 4.6 mph   83% 0.00 in
10:03 49.8 °F 45.2 °F 30.26 in Calm     84% 0.00 in
10:11 50.0 °F 45.7 °F 30.26 in Calm     85% 0.00 in
10:16 50.0 °F 44.7 °F 30.26 in Calm     82% 0.00 in
10:24 50.2 °F 45.8 °F 30.27 in Calm     85% 0.00 in
10:29 50.2 °F 45.2 °F 30.27 in Calm     83% 0.00 in
10:38 50.4 °F 45.1 °F 30.28 in Calm     82% 0.00 in
10:51 50.5 °F 45.2 °F 30.28 in West 2.3 mph   82% 0.00 in
11:07 51.1 °F 45.5 °F 30.29 in Calm     81% 0.00 in
11:17 51.1 °F 45.1 °F 30.29 in Calm     80% 0.00 in
11:24 51.3 °F 45.3 °F 30.29 in SW 2.3 mph   80% 0.00 in
11:29 51.3 °F 45.6 °F 30.29 in SW 6.2 mph   81% 0.00 in
11:35 51.1 °F 44.8 °F 30.30 in SW 4.6 mph 4.6 mph 79% 0.00 in
11:40 51.3 °F 45.6 °F 30.30 in WSW 4.7 mph 4.7 mph 81% 0.00 in
11:46 51.3 °F 45.3 °F 30.30 in WNW 3.5 mph 3.5 mph 80% 0.00 in
11:56 51.3 °F 45.0 °F 30.30 in Calm     79% 0.00 in
12:01 51.3 °F 45.3 °F 30.30 in West 7.4 mph   80% 0.00 in
12:14 50.7 °F 45.4 °F 30.30 in WSW 4.0 mph 4.0 mph 82% 0.00 in
12:22 50.5 °F 45.6 °F 30.31 in Calm   1.4 mph 83% 0.00 in
12:30 50.2 °F 45.8 °F 30.31 in WSW 2.3 mph   85% 0.00 in
12:35 49.8 °F 45.5 °F 30.31 in SW 2.3 mph   85% 0.00 in
12:43 49.6 °F 45.3 °F 30.31 in Calm     85% 0.00 in
12:54 49.6 °F 45.3 °F 30.32 in South 1.2 mph   85% 0.00 in
13:00 49.6 °F 45.6 °F 30.32 in SE 1.4 mph   86% 0.00 in
13:12 49.6 °F 45.6 °F 30.32 in Calm     86% 0.00 in
13:22 49.6 °F 45.3 °F 30.33 in SSE 1.8 mph   85% 0.00 in
13:28 49.6 °F 45.3 °F 30.33 in SE 3.1 mph   85% 0.00 in
13:33 49.6 °F 45.3 °F 30.33 in Calm     85% 0.00 in
13:44 49.5 °F 45.8 °F 30.33 in NNW 6.9 mph 6.9 mph 87% 0.00 in
14:01 49.3 °F 45.9 °F 30.33 in West 2.3 mph   88% 0.00 in
14:08 49.3 °F 45.9 °F 30.34 in SE 1.8 mph   88% 0.00 in
14:19 49.3 °F 45.6 °F 30.34 in West 5.8 mph 5.8 mph 87% 0.00 in
14:24 49.1 °F 45.7 °F 30.34 in West 5.9 mph 5.9 mph 88% 0.00 in
14:44 48.7 °F 45.6 °F 30.34 in SW 6.9 mph 6.9 mph 89% 0.00 in
14:53 48.4 °F 45.6 °F 30.34 in SSE 2.3 mph 2.3 mph 90% 0.00 in
14:58 48.2 °F 45.7 °F 30.34 in Calm     91% 0.01 in
15:06 48.0 °F 45.5 °F 30.35 in WNW 2.3 mph   91% 0.01 in
15:13 48.0 °F 45.8 °F 30.35 in Calm     92% 0.01 in
15:21 48.0 °F 45.8 °F 30.35 in Calm     92% 0.01 in
15:28 47.8 °F 45.9 °F 30.35 in Calm     93% 0.01 in
15:33 47.8 °F 45.9 °F 30.36 in Calm     93% 0.01 in
15:38 47.8 °F 45.9 °F 30.36 in Calm     93% 0.01 in
15:50 47.8 °F 45.9 °F 30.36 in Calm     93% 0.01 in
15:55 47.8 °F 45.9 °F 30.36 in Calm     93% 0.00 in
16:02 47.8 °F 45.9 °F 30.36 in Calm     93% 0.00 in
16:13 47.8 °F 45.9 °F 30.36 in Calm     93% 0.00 in
16:22 47.8 °F 45.9 °F 30.36 in Calm     93% 0.00 in
16:29 47.8 °F 45.9 °F 30.36 in Calm     93% 0.00 in
16:34 47.8 °F 45.9 °F 30.36 in Calm     93% 0.00 in
16:41 47.8 °F 45.9 °F 30.36 in Calm     93% 0.00 in
16:57 47.8 °F 45.9 °F 30.37 in Calm     93% 0.00 in
17:13 47.7 °F 45.7 °F 30.37 in Calm     93% 0.01 in
17:18 47.7 °F 45.7 °F 30.37 in Calm     93% 0.01 in
17:39 47.5 °F 45.6 °F 30.36 in Calm     93% 0.02 in
17:45 47.5 °F 45.6 °F 30.36 in Calm     93% 0.02 in
17:50 47.5 °F 45.6 °F 30.36 in Calm     93% 0.02 in
17:57 47.5 °F 45.6 °F 30.36 in Calm     93% 0.02 in
18:03 47.5 °F 45.6 °F 30.36 in Calm     93% 0.01 in
18:11 47.5 °F 45.6 °F 30.36 in Calm     93% 0.01 in
18:16 47.3 °F 45.4 °F 30.36 in Calm     93% 0.01 in
18:29 47.3 °F 45.4 °F 30.37 in Calm     93% 0.00 in
18:34 47.3 °F 45.4 °F 30.37 in Calm     93% 0.01 in
18:43 47.3 °F 45.4 °F 30.37 in Calm     93% 0.01 in
18:53 47.3 °F 45.4 °F 30.37 in Calm     93% 0.01 in
18:59 47.3 °F 45.4 °F 30.37 in Calm     93% 0.01 in
19:08 47.5 °F 45.6 °F 30.37 in Calm     93% 0.01 in
19:16 47.5 °F 45.6 °F 30.37 in Calm     93% 0.01 in
19:33 47.1 °F 45.2 °F 30.38 in Calm     93% 0.00 in
19:40 47.1 °F 45.2 °F 30.38 in Calm     93% 0.00 in
19:47 47.1 °F 45.2 °F 30.38 in Calm     93% 0.00 in
19:57 46.9 °F 45.0 °F 30.38 in Calm     93% 0.00 in
20:03 46.9 °F 45.0 °F 30.38 in Calm     93% 0.00 in
20:19 46.8 °F 44.8 °F 30.38 in Calm     93% 0.00 in
20:26 46.8 °F 44.8 °F 30.38 in Calm     93% 0.00 in
20:33 46.8 °F 44.8 °F 30.38 in Calm     93% 0.00 in
20:45 46.8 °F 44.8 °F 30.38 in Calm     93% 0.00 in
20:50 46.8 °F 44.8 °F 30.37 in Calm     93% 0.00 in
20:58 46.6 °F 44.7 °F 30.37 in Calm     93% 0.00 in
21:21 46.4 °F 44.5 °F 30.37 in Calm     93% 0.00 in
21:32 46.2 °F 44.3 °F 30.36 in Calm     93% 0.00 in
21:47 46.2 °F 44.3 °F 30.36 in Calm     93% 0.00 in
21:52 46.0 °F 44.1 °F 30.36 in Calm     93% 0.00 in
22:03 46.0 °F 44.1 °F 30.35 in Calm     93% 0.00 in
22:21 45.9 °F 44.0 °F 30.36 in Calm     93% 0.00 in
22:46 45.5 °F 43.6 °F 30.35 in Calm     93% 0.00 in
22:53 45.5 °F 43.6 °F 30.37 in Calm     93% 0.00 in
22:58 45.3 °F 43.4 °F 30.37 in Calm     93% 0.00 in
23:03 45.3 °F 43.4 °F 30.36 in Calm     93% 0.00 in
23:12 45.3 °F 43.4 °F 30.36 in Calm     93% 0.00 in
23:22 45.3 °F 43.4 °F 30.38 in Calm     93% 0.00 in
23:31 45.3 °F 43.4 °F 30.37 in Calm     93% 0.00 in
23:38 45.3 °F 43.4 °F 30.37 in Calm     93% 0.00 in
23:44 45.3 °F 43.4 °F 30.37 in Calm     93% 0.00 in
23:58 45.3 °F 43.4 °F 30.37 in Calm     93% 0.00 in
Amateur Radio Station WA6MVG